Time;durP1;ratioP1;P1;durP2;ratioP2;P2;SDS_P1;SDS_P2;PMS_P1;PMS_P2;Temp;Humidity;BMP_temperature;BMP_pressure;BME280_temperature;BME280_humidity;BME280_pressure;Samples;Min_cycle;Max_cycle;Signal;HPM_P1;HPM_P2
2022/07/05 00:02:40;;;;;;;3.30;2.40;;;;;;;21.51;50.79;98959.41;6978548;28;20231;-80
2022/07/05 00:06:01;;;;;;;2.70;2.37;;;;;;;21.32;52.52;99015.03;6978446;28;20318;-80
2022/07/05 00:09:23;;;;;;;3.53;2.53;;;;;;;21.56;51.86;99032.69;6977414;28;20316;-80
2022/07/05 00:12:44;;;;;;;3.53;2.57;;;;;;;21.92;50.86;99027.03;6978116;28;20231;-80
2022/07/05 00:16:08;;;;;;;4.33;2.93;;;;;;;21.27;51.66;99005.97;6977639;28;20211;-80
2022/07/05 00:19:29;;;;;;;2.50;2.30;;;;;;;21.60;51.02;98998.94;6977299;28;20280;-80
2022/07/05 00:22:51;;;;;;;4.37;3.07;;;;;;;21.73;50.93;99014.91;6977306;28;20231;-80
2022/07/05 00:26:13;;;;;;;3.67;2.67;;;;;;;21.84;50.57;99022.06;6977642;28;20313;-80
2022/07/05 00:29:34;;;;;;;3.83;2.80;;;;;;;20.89;52.90;99022.78;6977016;28;20228;-80
2022/07/05 00:32:57;;;;;;;3.77;2.50;;;;;;;21.39;51.58;99018.34;6977160;28;20244;-80
2022/07/05 00:36:19;;;;;;;3.03;2.80;;;;;;;21.45;51.56;99025.50;6977617;28;20257;-79
2022/07/05 00:39:40;;;;;;;2.87;2.57;;;;;;;21.59;51.02;99019.25;6974996;28;20215;-80
2022/07/05 00:43:02;;;;;;;2.97;2.70;;;;;;;21.64;50.71;99012.94;6979262;28;20253;-81
2022/07/05 00:46:23;;;;;;;2.70;2.50;;;;;;;21.31;52.07;99014.22;6985246;28;20269;-80
2022/07/05 00:49:46;;;;;;;2.57;2.37;;;;;;;21.40;51.51;99025.47;6976734;28;20240;-80
2022/07/05 00:53:08;;;;;;;3.90;2.50;;;;;;;21.12;51.84;99001.25;6977366;28;20845;-79
2022/07/05 00:56:30;;;;;;;3.30;2.50;;;;;;;21.31;51.48;99003.22;6977041;28;20208;-80
2022/07/05 00:59:52;;;;;;;3.83;2.77;;;;;;;21.17;52.32;99015.81;6976767;28;20212;-80
2022/07/05 01:03:13;;;;;;;3.13;2.77;;;;;;;20.67;53.89;99022.91;6977058;28;20375;-80
2022/07/05 01:06:36;;;;;;;4.13;2.97;;;;;;;20.97;52.97;99000.34;6976363;28;20229;-80
2022/07/05 01:09:59;;;;;;;3.17;2.50;;;;;;;21.20;52.08;99019.94;6976102;28;20293;-79
2022/07/05 01:13:21;;;;;;;2.77;2.57;;;;;;;21.25;51.79;99012.53;6979933;28;20722;-80
2022/07/05 01:16:43;;;;;;;4.03;2.70;;;;;;;21.10;52.33;99008.91;6978474;28;20344;-79
2022/07/05 01:20:06;;;;;;;3.83;3.43;;;;;;;20.83;52.62;99021.91;6974880;28;20252;-81
2022/07/05 01:23:30;;;;;;;3.40;3.10;;;;;;;20.52;54.06;99008.28;6976716;28;20224;-80
2022/07/05 01:26:51;;;;;;;3.90;2.50;;;;;;;20.79;53.42;99029.00;6981549;28;20228;-80
2022/07/05 01:30:14;;;;;;;5.90;3.27;;;;;;;20.43;54.47;99010.69;6990015;28;20195;-80
2022/07/05 01:33:36;;;;;;;3.03;2.70;;;;;;;20.69;54.49;99030.88;6991109;28;20233;-79
2022/07/05 01:36:57;;;;;;;4.53;3.60;;;;;;;19.88;54.82;98971.06;6990762;28;20198;-80
2022/07/05 01:40:21;;;;;;;4.53;3.00;;;;;;;20.19;54.69;98975.72;7001483;28;20202;-81
2022/07/05 01:43:43;;;;;;;5.33;3.10;;;;;;;20.33;54.71;98994.19;6988366;28;20226;-80
2022/07/05 01:47:06;;;;;;;4.33;3.27;;;;;;;20.40;55.37;99041.34;6982412;28;20287;-80
2022/07/05 01:50:29;;;;;;;4.47;3.43;;;;;;;20.31;55.24;99028.41;6976931;28;20265;-81
2022/07/05 01:53:53;;;;;;;4.10;3.10;;;;;;;20.50;54.72;99024.16;6978585;28;20616;-79
2022/07/05 01:57:16;;;;;;;4.80;3.00;;;;;;;20.41;54.31;98992.88;6977996;28;20211;-81
2022/07/05 02:00:45;;;;;;;4.27;3.33;;;;;;;20.83;53.72;99027.41;6977045;28;20201;-80
2022/07/05 02:04:08;;;;;;;3.63;2.90;;;;;;;20.87;53.51;99047.69;6977428;28;20229;-80
2022/07/05 02:07:30;;;;;;;3.30;3.00;;;;;;;20.84;52.58;99021.63;6980623;28;20232;-80
2022/07/05 02:10:51;;;;;;;4.07;3.30;;;;;;;20.37;54.44;99030.09;6982678;28;20211;-79
2022/07/05 02:14:14;;;;;;;3.20;2.90;;;;;;;20.36;54.53;99040.22;6983801;28;20253;-81
2022/07/05 02:17:36;;;;;;;5.43;3.63;;;;;;;19.50;57.34;99032.25;6983052;28;20214;-80
2022/07/05 02:20:58;;;;;;;4.17;3.50;;;;;;;19.69;56.96;99030.00;6982962;28;20227;-80
2022/07/05 02:24:20;;;;;;;3.97;3.27;;;;;;;20.13;56.00;99031.53;6980991;28;20242;-80
2022/07/05 02:27:42;;;;;;;3.53;3.23;;;;;;;19.91;56.05;99012.41;6979965;28;20288;-81
2022/07/05 02:31:05;;;;;;;3.67;3.33;;;;;;;20.25;55.39;99035.75;6982061;28;20211;-79
2022/07/05 02:34:27;;;;;;;3.43;3.13;;;;;;;20.34;55.03;99033.34;6979527;28;20300;-80
2022/07/05 02:37:48;;;;;;;5.90;3.20;;;;;;;20.24;55.17;99036.84;6983425;28;20290;-80
2022/07/05 02:41:11;;;;;;;3.90;3.63;;;;;;;19.61;57.03;99030.44;6981628;28;20211;-79
2022/07/05 02:44:32;;;;;;;6.30;3.40;;;;;;;19.73;57.21;99040.16;6984523;28;20291;-82
2022/07/05 02:47:55;;;;;;;3.37;3.10;;;;;;;20.17;55.32;99040.88;6981456;28;20365;-80
2022/07/05 02:51:17;;;;;;;5.30;3.97;;;;;;;19.78;56.26;99042.94;6981269;28;20697;-81
2022/07/05 02:54:39;;;;;;;4.30;3.50;;;;;;;19.64;56.62;99036.22;6978314;28;20229;-80
2022/07/05 02:58:01;;;;;;;6.40;3.30;;;;;;;19.87;56.29;99032.38;6975398;28;20211;-80
2022/07/05 03:01:23;;;;;;;3.80;3.30;;;;;;;20.10;55.34;99037.53;6975205;28;20287;-80
2022/07/05 03:04:45;;;;;;;3.60;3.30;;;;;;;20.25;54.65;99043.13;6992938;28;20247;-80
2022/07/05 03:08:07;;;;;;;3.67;3.40;;;;;;;19.63;56.54;99033.75;6980632;28;20250;-80
2022/07/05 03:11:29;;;;;;;3.60;3.30;;;;;;;19.68;57.19;99042.84;6978664;28;20203;-80
2022/07/05 03:14:51;;;;;;;4.87;3.50;;;;;;;19.47;56.71;99008.16;6976673;28;20260;-80
2022/07/05 03:18:13;;;;;;;4.13;3.20;;;;;;;19.63;56.45;99037.31;6976292;28;20204;-80
2022/07/05 03:21:36;;;;;;;4.40;3.83;;;;;;;19.51;56.98;99049.50;6976167;28;20211;-80
2022/07/05 03:24:58;;;;;;;6.70;3.80;;;;;;;19.37;57.70;99048.22;6976209;28;20243;-81
2022/07/05 03:28:19;;;;;;;5.40;3.90;;;;;;;19.48;57.94;99048.09;6980202;28;20233;-81
2022/07/05 03:31:41;;;;;;;3.23;2.93;;;;;;;19.87;56.71;99059.72;6991184;28;20243;-81
2022/07/05 03:35:03;;;;;;;3.73;3.33;;;;;;;19.71;57.18;99057.91;6984550;28;20227;-80
2022/07/05 03:38:26;;;;;;;5.87;3.83;;;;;;;20.08;55.54;99062.44;6979728;28;20217;-81
2022/07/05 03:41:47;;;;;;;6.23;3.50;;;;;;;20.03;55.21;99036.88;6992540;28;20211;-80
2022/07/05 03:45:10;;;;;;;5.10;3.37;;;;;;;20.25;54.02;99060.41;6996193;28;20258;-80
2022/07/05 03:48:32;;;;;;;3.60;3.30;;;;;;;20.09;54.50;99072.28;6979835;28;20303;-80
2022/07/05 03:51:53;;;;;;;3.97;3.60;;;;;;;19.72;55.69;99067.75;6976920;28;20208;-80
2022/07/05 03:55:16;;;;;;;3.93;3.17;;;;;;;19.85;55.45;99072.81;6980810;28;20274;-81
2022/07/05 03:58:38;;;;;;;6.23;3.37;;;;;;;19.66;55.55;99083.31;6975702;28;20247;-80
2022/07/05 04:02:00;;;;;;;4.40;3.50;;;;;;;19.68;55.29;99088.50;6952217;28;20241;-81
2022/07/05 04:05:21;;;;;;;4.10;3.70;;;;;;;19.34;55.78;99051.47;6952084;28;20306;-80
2022/07/05 04:08:43;;;;;;;4.93;3.50;;;;;;;19.01;56.61;99043.34;6957656;28;20622;-80
2022/07/05 04:12:07;;;;;;;6.00;3.90;;;;;;;19.23;57.27;99066.09;6979401;28;20297;-80
2022/07/05 04:15:28;;;;;;;7.97;5.83;;;;;;;19.35;57.48;99084.00;6980092;28;20292;-80
2022/07/05 04:18:50;;;;;;;6.93;6.23;;;;;;;19.07;58.42;99105.19;6979589;28;20202;-80
2022/07/05 04:22:11;;;;;;;5.80;5.30;;;;;;;19.02;58.51;99091.47;6979172;28;20310;-80
2022/07/05 04:25:33;;;;;;;8.23;4.57;;;;;;;19.49;57.76;99114.53;6979401;28;20270;-79
2022/07/05 04:29:02;;;;;;;5.63;3.60;;;;;;;19.78;56.16;99113.25;6978019;28;20367;-80
2022/07/05 04:32:24;;;;;;;4.50;4.00;;;;;;;19.48;56.92;99101.97;6960186;28;20222;-82
2022/07/05 04:35:45;;;;;;;5.17;4.10;;;;;;;19.71;56.88;99121.69;6977108;28;20228;-80
2022/07/05 04:39:07;;;;;;;4.00;3.60;;;;;;;19.71;56.63;99097.06;6977729;28;20247;-81
2022/07/05 04:42:29;;;;;;;4.43;4.00;;;;;;;19.29;57.12;99114.28;6980693;28;20269;-81
2022/07/05 04:45:52;;;;;;;4.40;4.00;;;;;;;19.70;56.70;99114.53;6972823;28;20216;-80
2022/07/05 04:49:13;;;;;;;4.00;3.70;;;;;;;19.67;56.89;99097.81;6968202;28;20227;-80
2022/07/05 04:52:35;;;;;;;4.60;4.20;;;;;;;20.06;56.56;99115.75;6961219;28;20310;-81
2022/07/05 04:55:56;;;;;;;3.67;3.37;;;;;;;20.69;55.32;99105.66;6973706;28;20202;-81
2022/07/05 04:59:18;;;;;;;5.03;3.40;;;;;;;21.07;54.45;99127.38;6979547;28;20214;-79
2022/07/05 05:02:42;;;;;;;4.03;3.73;;;;;;;21.04;54.78;99135.31;6977623;28;20261;-79
2022/07/05 05:06:03;;;;;;;5.37;3.47;;;;;;;21.27;53.78;99111.84;6976644;28;20195;-80
2022/07/05 05:09:25;;;;;;;4.33;3.90;;;;;;;21.79;53.00;99123.66;6978381;28;20271;-81
2022/07/05 05:12:47;;;;;;;4.40;3.17;;;;;;;21.98;51.93;99093.75;6977541;28;20223;-80
2022/07/05 05:16:08;;;;;;;3.60;3.30;;;;;;;21.95;51.68;99113.53;6971328;28;20225;-81
2022/07/05 05:19:31;;;;;;;5.97;3.17;;;;;;;22.58;50.89;99119.41;6967855;28;20205;-80
2022/07/05 05:22:53;;;;;;;4.10;3.70;;;;;;;23.19;49.65;99112.75;6978280;28;20309;-81
2022/07/05 05:26:15;;;;;;;3.70;3.30;;;;;;;22.88;49.71;99097.41;6977954;28;20212;-81
2022/07/05 05:29:36;;;;;;;3.77;3.47;;;;;;;22.85;49.66;99108.97;6976274;28;20259;-81
2022/07/05 05:32:58;;;;;;;5.63;3.60;;;;;;;22.85;48.38;99059.47;6977068;28;20361;-81
2022/07/05 05:36:20;;;;;;;4.30;2.90;;;;;;;23.33;48.38;99107.50;6978881;28;20199;-81
2022/07/05 05:39:43;;;;;;;3.20;2.87;;;;;;;23.54;48.34;99129.16;6977205;28;20670;-81
2022/07/05 05:43:05;;;;;;;3.03;2.80;;;;;;;22.97;48.93;99119.66;6989189;28;20229;-82
2022/07/05 05:46:26;;;;;;;3.17;2.90;;;;;;;23.40;48.44;99128.13;6995159;28;20245;-82
2022/07/05 05:49:48;;;;;;;3.90;3.10;;;;;;;23.98;46.82;99097.06;6982498;28;20245;-81
2022/07/05 05:53:11;;;;;;;4.23;3.20;;;;;;;23.83;48.02;99118.34;6972433;28;20245;-81
2022/07/05 05:56:32;;;;;;;6.70;3.03;;;;;;;24.33;46.44;99124.41;6978300;28;20502;-81
2022/07/05 05:59:54;;;;;;;3.57;3.13;;;;;;;24.15;47.20;99127.00;6986101;28;20203;-81
2022/07/05 06:03:16;;;;;;;4.83;3.60;;;;;;;24.17;45.86;99117.34;6998466;28;20200;-82
2022/07/05 06:06:37;;;;;;;6.40;3.87;;;;;;;24.45;45.93;99108.31;6977059;28;20212;-80
2022/07/05 06:10:00;;;;;;;4.83;3.70;;;;;;;24.34;45.85;99136.22;6965540;28;20238;-81
2022/07/05 06:13:22;;;;;;;4.30;3.90;;;;;;;24.62;45.55;99144.63;6977508;28;20222;-81
2022/07/05 06:16:43;;;;;;;6.73;4.10;;;;;;;25.23;43.88;99126.41;6976633;28;20815;-82
2022/07/05 06:20:07;;;;;;;5.40;3.50;;;;;;;25.83;43.64;99135.97;6975099;28;20679;-81
2022/07/05 06:23:29;;;;;;;5.00;3.87;;;;;;;25.49;43.60;99144.34;6970317;28;20230;-80
2022/07/05 06:26:52;;;;;;;4.40;3.43;;;;;;;26.20;41.04;99136.84;6957266;28;20238;-81
2022/07/05 06:30:15;;;;;;;4.20;3.57;;;;;;;26.26;40.72;99132.88;6948047;28;20267;-81
2022/07/05 06:33:36;;;;;;;3.97;3.30;;;;;;;26.34;41.31;99150.75;6948058;28;20311;-81
2022/07/05 06:36:58;;;;;;;3.37;3.07;;;;;;;25.84;41.37;99135.63;6948039;28;20199;-81
2022/07/05 06:40:21;;;;;;;6.87;3.00;;;;;;;25.89;41.64;99160.44;6971126;28;20237;-81
2022/07/05 06:43:43;;;;;;;7.23;3.30;;;;;;;26.87;38.24;99130.84;6976526;28;20242;-81
2022/07/05 06:47:05;;;;;;;4.00;3.60;;;;;;;25.38;41.25;99161.34;6975911;28;20199;-81
2022/07/05 06:50:27;;;;;;;4.57;3.27;;;;;;;26.05;40.68;99159.16;6960238;28;20240;-81
2022/07/05 06:53:49;;;;;;;5.93;3.30;;;;;;;27.08;39.50;99145.97;6975714;28;20227;-81
2022/07/05 06:57:11;;;;;;;5.70;3.20;;;;;;;27.00;39.34;99141.13;6973549;28;20206;-81
2022/07/05 07:00:33;;;;;;;6.57;3.07;;;;;;;27.68;38.24;99139.31;6974861;28;20270;-81
2022/07/05 07:03:55;;;;;;;4.83;3.30;;;;;;;27.64;37.86;99156.84;6975650;28;20247;-80
2022/07/05 07:10:56;;;;;;;4.80;2.40;;;;;;;28.90;33.29;99142.66;6975692;28;20205;-81
2022/07/05 07:14:17;;;;;;;4.50;2.27;;;;;;;28.38;33.75;99157.25;6975338;28;20260;-81
2022/07/05 07:17:40;;;;;;;5.80;2.77;;;;;;;28.07;34.29;99150.69;6974518;28;20204;-81
2022/07/05 07:21:02;;;;;;;3.70;2.43;;;;;;;28.66;33.81;99122.72;6974972;28;20223;-81
2022/07/05 07:24:23;;;;;;;3.23;2.93;;;;;;;28.24;32.70;99163.94;6969666;28;20832;-82
2022/07/05 07:27:46;;;;;;;2.90;2.13;;;;;;;28.53;32.34;99150.53;6950308;28;20249;-82
2022/07/05 07:31:08;;;;;;;4.37;2.10;;;;;;;28.36;32.34;99162.25;6983478;28;20288;-82
2022/07/05 07:34:32;;;;;;;3.53;2.00;;;;;;;27.48;33.18;99148.00;6986039;28;20226;-82
2022/07/05 07:37:54;;;;;;;1.93;1.80;;;;;;;28.14;33.63;99153.88;6968358;28;20698;-81
2022/07/05 07:41:15;;;;;;;5.17;2.10;;;;;;;27.65;33.46;99152.97;6969066;28;20656;-81
2022/07/05 07:44:37;;;;;;;3.00;2.20;;;;;;;28.97;33.10;99161.69;6992002;28;20236;-82
2022/07/05 07:47:58;;;;;;;3.67;2.13;;;;;;;29.94;29.53;99166.00;6994425;28;20260;-83
2022/07/05 07:51:22;;;;;;;2.37;2.00;;;;;;;30.00;29.76;99155.53;6955492;28;20203;-82
2022/07/05 07:54:43;;;;;;;2.13;1.73;;;;;;;29.28;30.11;99171.72;6950600;28;20228;-82
2022/07/05 07:58:05;;;;;;;1.63;1.50;;;;;;;28.82;30.00;99171.19;6956895;28;20196;-81
2022/07/05 08:01:27;;;;;;;3.43;1.80;;;;;;;29.13;29.26;99171.28;6980135;28;20816;-81
2022/07/05 08:04:49;;;;;;;2.90;2.30;;;;;;;30.37;29.41;99177.28;6980130;28;20248;-82
2022/07/05 08:08:12;;;;;;;3.63;1.70;;;;;;;31.01;28.78;99157.66;6978955;28;20256;-81
2022/07/05 08:11:33;;;;;;;4.40;2.07;;;;;;;29.50;30.84;99174.47;6979869;28;20214;-81
2022/07/05 08:14:55;;;;;;;5.87;2.70;;;;;;;29.46;31.57;99161.50;6980358;28;20239;-81
2022/07/05 08:22:08;;;;;;;2.40;2.17;;;;;;;30.50;30.64;99163.22;6918216;28;20223;-82
2022/07/05 08:25:31;;;;;;;3.50;1.87;;;;;;;30.29;29.60;99170.53;6973179;28;20217;-83
2022/07/05 08:28:52;;;;;;;2.57;2.10;;;;;;;30.11;30.34;99173.59;6979505;28;20292;-82
2022/07/05 08:32:14;;;;;;;2.00;1.70;;;;;;;29.79;30.14;99162.84;6979715;28;20285;-84
2022/07/05 08:35:36;;;;;;;3.67;2.50;;;;;;;30.29;29.37;99167.75;6985756;28;20201;-81
2022/07/05 08:38:58;;;;;;;4.30;2.20;;;;;;;30.98;28.65;99169.47;6989192;28;20209;-82
2022/07/05 08:42:21;;;;;;;3.33;1.73;;;;;;;32.02;28.21;99175.25;6984248;28;20241;-80
2022/07/05 08:45:44;;;;;;;3.10;2.13;;;;;;;31.53;27.72;99150.00;6984781;28;20649;-81
2022/07/05 08:49:05;;;;;;;2.77;1.77;;;;;;;32.56;26.35;99159.50;6985559;28;20660;-81
2022/07/05 08:52:27;;;;;;;5.10;2.07;;;;;;;31.83;26.58;99148.94;6984594;28;20230;-81
2022/07/05 08:55:49;;;;;;;2.10;1.90;;;;;;;32.16;26.92;99147.94;6981865;28;20303;-82
2022/07/05 08:59:12;;;;;;;14.63;6.20;;;;;;;31.62;27.67;99157.22;6981052;28;20209;-81
2022/07/05 09:02:34;;;;;;;6.70;3.33;;;;;;;31.46;27.51;99160.84;6978409;28;20344;-83
2022/07/05 09:05:56;;;;;;;6.53;1.80;;;;;;;30.99;27.82;99167.47;6978386;28;20665;-82
2022/07/05 09:09:19;;;;;;;3.63;1.90;;;;;;;32.01;27.71;99159.66;6976514;28;20972;-82
2022/07/05 09:12:40;;;;;;;3.30;1.97;;;;;;;29.84;29.29;99107.09;6978053;28;20234;-81
2022/07/05 09:16:04;;;;;;;3.53;1.70;;;;;;;30.60;28.38;99146.16;6978323;28;20283;-82
2022/07/05 09:19:26;;;;;;;5.20;2.20;;;;;;;31.18;28.40;99157.66;6978152;28;20209;-81
2022/07/05 09:22:52;;;;;;;4.63;2.00;;;;;;;31.54;27.76;99160.84;6977922;28;20220;-81
2022/07/05 09:26:14;;;;;;;3.93;1.90;;;;;;;32.14;27.39;99160.59;6977575;28;20216;-81
2022/07/05 09:29:36;;;;;;;2.50;2.10;;;;;;;31.64;27.42;99152.13;6972302;28;20265;-82
2022/07/05 09:33:03;;;;;;;2.93;1.50;;;;;;;31.97;26.13;99155.91;6976998;28;20226;-82
2022/07/05 09:36:25;;;;;;;2.37;1.70;;;;;;;32.17;26.71;99155.16;6977055;28;20289;-82
2022/07/05 09:39:47;;;;;;;1.50;1.40;;;;;;;31.11;26.13;99171.25;6974199;28;20642;-80
2022/07/05 09:43:13;;;;;;;3.27;1.60;;;;;;;31.97;26.58;99132.78;6959444;28;20238;-82
2022/07/05 09:46:34;;;;;;;1.83;1.30;;;;;;;31.55;24.43;99165.25;6966865;28;20187;-83
2022/07/05 09:50:03;;;;;;;2.57;1.50;;;;;;;31.40;25.68;99170.53;6972274;28;20254;-83
2022/07/05 09:53:25;;;;;;;3.77;1.40;;;;;;;32.38;24.28;99171.97;6976597;28;20237;-82
2022/07/05 09:56:48;;;;;;;4.37;1.00;;;;;;;33.24;23.21;99167.31;6977042;28;20222;-83
2022/07/05 10:00:11;;;;;;;1.83;1.03;;;;;;;32.70;22.77;99172.06;6975872;28;20199;-79
2022/07/05 10:03:52;;;;;;;1.60;1.30;;;;;;;31.91;24.62;99170.41;6976396;28;20233;-80
2022/07/05 10:07:30;;;;;;;2.30;1.10;;;;;;;32.40;24.42;99164.88;6976049;28;20202;-81
2022/07/05 10:10:53;;;;;;;1.10;1.00;;;;;;;32.20;24.46;99156.47;6976197;28;20217;-81
2022/07/05 10:14:19;;;;;;;2.33;1.30;;;;;;;32.25;24.96;99154.31;6978167;28;20222;-81
2022/07/05 10:17:42;;;;;;;1.27;1.17;;;;;;;33.12;23.53;99142.94;6977471;28;20216;-81
2022/07/05 10:21:05;;;;;;;3.57;1.27;;;;;;;30.99;25.22;99161.91;6978632;28;20222;-81
2022/07/05 10:24:33;;;;;;;2.03;1.30;;;;;;;31.95;23.66;99161.00;6971651;28;20248;-82
2022/07/05 10:27:55;;;;;;;1.33;1.23;;;;;;;32.15;23.56;99143.53;6952332;28;20191;-81
2022/07/05 10:31:18;;;;;;;1.77;1.27;;;;;;;32.50;23.29;99147.75;6951941;28;20230;-83
2022/07/05 10:34:41;;;;;;;2.43;1.40;;;;;;;31.87;22.13;99088.53;6975915;28;20720;-82
2022/07/05 10:38:05;;;;;;;3.97;1.53;;;;;;;33.18;22.73;99152.72;6978639;28;20210;-81
2022/07/05 10:41:31;;;;;;;1.17;1.03;;;;;;;33.28;22.17;99138.38;6981313;28;20459;-80
2022/07/05 10:44:52;;;;;;;2.60;1.23;;;;;;;34.19;21.89;99149.88;6992925;28;20234;-83
2022/07/05 10:48:15;;;;;;;3.70;1.40;;;;;;;33.16;21.89;99146.69;6963703;28;20581;-81
2022/07/05 10:51:37;;;;;;;1.97;1.30;;;;;;;33.40;22.25;99132.81;6960935;28;20728;-84
2022/07/05 10:55:21;;;;;;;1.97;1.30;;;;;;;32.69;22.17;99139.69;6983480;28;20233;-83
2022/07/05 10:58:45;;;;;;;1.90;1.10;;;;;;;33.05;21.80;99127.88;6951687;28;20203;-83
2022/07/05 11:02:13;;;;;;;2.17;1.10;;;;;;;33.05;20.57;99136.25;6955033;28;20224;-83
2022/07/05 11:05:36;;;;;;;3.13;1.43;;;;;;;33.65;20.52;99130.84;6956155;28;20187;-84
2022/07/05 11:09:17;;;;;;;2.33;1.07;;;;;;;33.24;20.62;99139.34;6972784;28;20226;-85
2022/07/05 11:12:39;;;;;;;1.97;1.00;;;;;;;33.84;20.71;99134.72;6982515;28;20513;-85
2022/07/05 11:16:22;;;;;;;1.20;0.90;;;;;;;34.30;20.16;99145.47;6982247;28;20206;-84
2022/07/05 11:20:04;;;;;;;4.47;1.43;;;;;;;35.51;19.02;99129.06;6980177;28;20226;-84
2022/07/05 11:23:28;;;;;;;1.63;1.20;;;;;;;34.83;19.33;99138.75;6980396;28;20211;-84
2022/07/05 11:26:52;;;;;;;2.50;1.17;;;;;;;34.21;19.59;99141.97;6982436;28;20660;-84
2022/07/05 11:30:23;;;;;;;3.40;1.17;;;;;;;33.76;19.54;99132.84;6976650;28;20877;-83
2022/07/05 11:33:48;;;;;;;1.07;0.97;;;;;;;33.40;20.44;99115.19;6982501;28;20305;-83
2022/07/05 11:37:21;;;;;;;2.20;1.30;;;;;;;33.15;21.84;99139.47;6982267;28;20198;-83
2022/07/05 11:40:42;;;;;;;3.23;1.40;;;;;;;33.42;21.77;99141.66;6983229;28;20205;-82
2022/07/05 11:44:04;;;;;;;1.30;1.10;;;;;;;32.59;21.38;99126.13;6983413;28;20226;-83
2022/07/05 11:47:27;;;;;;;1.90;1.17;;;;;;;32.28;22.16;99133.28;6984266;28;20210;-82
2022/07/05 11:50:50;;;;;;;2.13;1.23;;;;;;;32.98;21.46;99144.41;7003083;28;20226;-79
2022/07/05 11:54:12;;;;;;;1.60;1.50;;;;;;;32.33;20.79;99130.28;6973844;28;20222;-80
2022/07/05 11:57:34;;;;;;;1.80;1.30;;;;;;;32.45;22.36;99128.41;6974240;28;20214;-81
2022/07/05 12:00:56;;;;;;;2.87;1.43;;;;;;;33.40;22.22;99126.38;6977535;28;20290;-80
2022/07/05 12:04:25;;;;;;;2.13;1.50;;;;;;;32.01;23.16;99117.81;6979970;28;20222;-80
2022/07/05 12:07:51;;;;;;;2.00;1.20;;;;;;;32.37;22.25;99126.47;6978738;28;20340;-81
2022/07/05 12:14:52;;;;;;;1.20;1.10;;;;;;;33.21;21.59;99107.34;6974875;28;20218;-80
2022/07/05 12:18:15;;;;;;;1.83;1.40;;;;;;;32.53;21.95;99116.34;6979034;28;20291;-81
2022/07/05 12:21:37;;;;;;;2.33;1.10;;;;;;;32.32;22.03;99090.38;6980574;28;20639;-81
2022/07/05 12:25:01;;;;;;;3.90;1.37;;;;;;;32.41;21.27;99112.66;6980760;28;20290;-81
2022/07/05 12:28:23;;;;;;;3.67;1.17;;;;;;;33.86;20.56;99104.44;6965121;28;20230;-81
2022/07/05 12:31:59;;;;;;;3.63;1.43;;;;;;;33.44;21.51;99094.56;6954705;28;20246;-82
2022/07/05 12:35:32;;;;;;;2.37;1.43;;;;;;;32.53;21.49;99095.97;6954083;28;20270;-81
2022/07/05 12:38:59;;;;;;;1.47;1.33;;;;;;;32.84;22.43;99101.97;6952862;28;20217;-81
2022/07/05 12:42:35;;;;;;;3.10;0.97;;;;;;;34.03;20.48;99104.16;6976732;28;20234;-81
2022/07/05 12:46:01;;;;;;;4.10;1.50;;;;;;;33.53;20.80;99106.47;6987081;28;20205;-81
2022/07/05 12:49:23;;;;;;;1.60;1.27;;;;;;;32.67;20.42;99096.50;6981263;28;20230;-82
2022/07/05 12:58:01;;;;;;;2.00;1.10;;;;;;;33.09;19.65;99107.31;6981796;28;20602;-81
2022/07/05 13:00:31;;;;;;;1.57;1.00;;;;;;;33.48;19.50;99098.31;6980294;28;20234;-81
2022/07/05 13:04:04;;;;;;;2.00;1.17;;;;;;;33.00;20.41;99098.19;6981024;28;20234;-81
2022/07/05 13:07:26;;;;;;;2.57;1.23;;;;;;;33.86;19.26;99084.03;6980399;28;20232;-81
2022/07/05 13:10:47;;;;;;;1.73;1.20;;;;;;;33.78;19.89;99096.97;6977273;28;20320;-82
2022/07/05 13:14:09;;;;;;;1.03;1.00;;;;;;;33.89;20.92;99103.72;6953209;28;20223;-81
2022/07/05 13:17:32;;;;;;;2.13;1.43;;;;;;;33.96;20.07;99084.34;6952825;28;20253;-81
2022/07/05 13:20:53;;;;;;;1.43;1.10;;;;;;;34.67;19.17;99102.19;6951651;28;20203;-82
2022/07/05 13:24:15;;;;;;;1.73;1.03;;;;;;;33.71;19.73;99101.47;6950917;28;20230;-79
2022/07/05 13:27:37;;;;;;;3.13;1.40;;;;;;;34.39;20.21;99097.75;6948943;28;20337;-79
2022/07/05 13:30:58;;;;;;;2.37;1.40;;;;;;;33.43;20.20;99101.34;6949126;28;20269;-79
2022/07/05 13:34:23;;;;;;;2.30;1.20;;;;;;;34.13;20.19;99098.09;6949409;28;20314;-79
2022/07/05 13:37:45;;;;;;;3.40;1.23;;;;;;;34.50;19.50;99094.06;6950370;28;20199;-80
2022/07/05 13:41:06;;;;;;;4.03;1.30;;;;;;;34.47;19.78;99086.41;6970155;28;20687;-79
2022/07/05 13:44:28;;;;;;;1.87;1.20;;;;;;;32.87;20.85;99067.75;6981341;28;20230;-79
2022/07/05 13:47:57;;;;;;;3.07;1.63;;;;;;;34.12;20.86;99087.25;7056089;27;20618;-78
2022/07/05 13:51:19;;;;;;;4.10;1.10;;;;;;;33.47;21.40;99085.50;7064663;28;20201;-79
2022/07/05 13:54:43;;;;;;;2.73;1.40;;;;;;;34.09;20.61;99062.78;7071752;28;20232;-79
2022/07/05 13:58:04;;;;;;;2.80;1.20;;;;;;;34.14;20.34;99085.72;7057651;28;20207;-79
2022/07/05 14:01:28;;;;;;;2.70;1.50;;;;;;;34.24;20.50;99090.03;7054779;28;20208;-79
2022/07/05 14:04:51;;;;;;;2.73;1.20;;;;;;;33.99;20.34;99094.03;7055128;28;20243;-78
2022/07/05 14:08:14;;;;;;;2.90;1.30;;;;;;;33.27;20.58;99077.19;7051914;28;20197;-78
2022/07/05 14:11:36;;;;;;;1.73;1.10;;;;;;;33.22;21.01;99074.59;7027127;28;20705;-79
2022/07/05 14:14:57;;;;;;;4.13;1.43;;;;;;;33.32;21.12;99082.56;7026671;28;20251;-79
2022/07/05 14:18:20;;;;;;;3.20;1.40;;;;;;;32.26;22.15;99066.63;7024778;28;20228;-79
2022/07/05 14:21:45;;;;;;;2.10;1.40;;;;;;;31.85;22.24;99072.13;7025916;28;20296;-79
2022/07/05 14:25:07;;;;;;;2.50;1.20;;;;;;;33.38;21.35;99067.19;7025970;28;20239;-79
2022/07/05 14:28:29;;;;;;;2.57;1.20;;;;;;;32.83;21.46;99064.81;7025176;28;20205;-79
2022/07/05 14:31:51;;;;;;;2.20;1.33;;;;;;;32.82;22.08;99067.97;7026826;28;20213;-79
2022/07/05 14:35:12;;;;;;;1.57;1.07;;;;;;;32.69;21.93;99057.88;7026679;28;20247;-79
2022/07/05 14:38:35;;;;;;;4.30;1.30;;;;;;;32.46;22.20;99060.22;7025318;28;20216;-79
2022/07/05 14:41:57;;;;;;;2.27;1.20;;;;;;;33.16;21.21;99060.03;7025419;28;20741;-79
2022/07/05 14:45:18;;;;;;;3.37;1.27;;;;;;;33.00;21.96;99038.66;7029140;28;20294;-79
2022/07/05 14:48:40;;;;;;;4.27;1.57;;;;;;;32.17;21.89;99031.53;7026496;28;20244;-78
2022/07/05 14:52:02;;;;;;;5.13;1.50;;;;;;;32.66;21.69;99051.00;7025555;28;20250;-79
2022/07/05 14:55:25;;;;;;;2.93;1.37;;;;;;;32.76;20.85;99050.59;7025826;28;20208;-79
2022/07/05 14:58:48;;;;;;;2.73;1.20;;;;;;;32.86;21.34;99038.19;7009417;28;20196;-79
2022/07/05 15:02:10;;;;;;;1.20;1.10;;;;;;;32.64;21.58;99016.19;7006398;28;20287;-79
2022/07/05 15:05:31;;;;;;;1.60;1.10;;;;;;;32.48;22.45;99043.94;7006675;28;20282;-79
2022/07/05 15:08:53;;;;;;;3.80;1.00;;;;;;;32.51;21.06;99023.72;7006228;28;20206;-79
2022/07/05 15:12:17;;;;;;;1.47;1.00;;;;;;;33.14;20.86;99041.97;7005907;28;20198;-78
2022/07/05 15:15:38;;;;;;;1.67;1.10;;;;;;;33.23;20.99;99043.50;7007238;28;20205;-79
2022/07/05 15:19:00;;;;;;;5.37;1.50;;;;;;;33.10;20.76;99029.84;7005276;28;20700;-79
2022/07/05 15:22:21;;;;;;;3.87;1.17;;;;;;;32.09;21.88;99046.38;7007191;28;20271;-79
2022/07/05 15:25:43;;;;;;;1.50;1.20;;;;;;;32.60;21.48;99034.81;7034552;28;20240;-79
2022/07/05 15:29:08;;;;;;;2.33;1.40;;;;;;;32.41;21.54;99009.34;7034413;28;20682;-79
2022/07/05 15:32:29;;;;;;;2.40;1.20;;;;;;;31.91;21.45;99017.78;7034778;28;20224;-79
2022/07/05 15:35:52;;;;;;;3.47;1.40;;;;;;;32.14;21.48;99021.06;7043562;28;20205;-79
2022/07/05 15:39:14;;;;;;;4.00;1.37;;;;;;;32.12;22.48;99035.34;7039841;28;20200;-79
2022/07/05 15:42:35;;;;;;;1.40;1.30;;;;;;;32.14;21.20;99026.66;7033459;28;20231;-79
2022/07/05 15:45:58;;;;;;;3.40;1.30;;;;;;;32.74;21.81;99016.59;7033490;28;20350;-79
2022/07/05 15:49:20;;;;;;;1.80;1.27;;;;;;;32.78;21.27;99019.53;7033876;28;20555;-79
2022/07/05 15:52:42;;;;;;;2.33;1.40;;;;;;;32.49;21.86;99009.28;7034140;28;20239;-78
2022/07/05 15:56:04;;;;;;;7.03;1.80;;;;;;;32.45;21.38;99027.06;7048440;28;20209;-79
2022/07/05 15:59:26;;;;;;;2.43;1.27;;;;;;;32.05;21.90;99023.09;7015787;28;20196;-79
2022/07/05 16:02:49;;;;;;;3.27;1.57;;;;;;;32.06;21.45;98936.28;7014978;28;20223;-79
2022/07/05 16:06:10;;;;;;;3.03;1.40;;;;;;;32.60;20.52;98992.94;7016842;28;20217;-79
2022/07/05 16:09:32;;;;;;;2.13;1.30;;;;;;;32.88;20.90;99016.28;7015519;28;20196;-79
2022/07/05 16:12:54;;;;;;;3.03;1.03;;;;;;;32.37;21.38;99016.81;7004721;28;20311;-79